createdAt,value
2018-01-18T00:01:05.937Z,3.10
2018-01-18T00:03:33.684Z,3.13
2018-01-18T00:06:01.226Z,3.13
2018-01-18T00:08:28.714Z,3.00
2018-01-18T00:10:56.287Z,3.10
2018-01-18T00:13:23.854Z,3.20
2018-01-18T00:15:51.420Z,2.93
2018-01-18T00:18:18.977Z,2.57
2018-01-18T00:20:46.536Z,2.70
2018-01-18T00:23:14.089Z,2.77
2018-01-18T00:25:41.647Z,3.03
2018-01-18T00:28:09.166Z,2.70
2018-01-18T00:30:36.727Z,2.90
2018-01-18T00:33:04.215Z,2.60
2018-01-18T00:35:31.813Z,2.90
2018-01-18T00:37:59.359Z,3.10
2018-01-18T00:40:26.850Z,2.87
2018-01-18T00:42:54.415Z,2.80
2018-01-18T00:45:21.990Z,3.00
2018-01-18T00:47:49.542Z,2.90
2018-01-18T00:50:17.164Z,2.33
2018-01-18T00:52:44.710Z,2.93
2018-01-18T00:55:12.250Z,2.90
2018-01-18T00:57:39.769Z,2.63
2018-01-18T01:00:07.326Z,3.07
2018-01-18T01:02:34.883Z,2.50
2018-01-18T01:05:02.444Z,3.00
2018-01-18T01:07:30.028Z,2.53
2018-01-18T01:09:57.597Z,2.60
2018-01-18T01:12:25.082Z,2.90
2018-01-18T01:14:52.633Z,2.30
2018-01-18T01:17:20.111Z,2.67
2018-01-18T01:19:47.684Z,2.70
2018-01-18T01:22:15.201Z,2.60
2018-01-18T01:24:43.690Z,2.70
2018-01-18T01:27:11.247Z,2.93
2018-01-18T01:29:38.795Z,2.70
2018-01-18T01:32:06.414Z,2.50
2018-01-18T01:34:33.959Z,2.97
2018-01-18T01:37:01.533Z,2.33
2018-01-18T01:39:29.053Z,2.70
2018-01-18T01:41:56.605Z,2.50
2018-01-18T01:44:24.165Z,2.43
2018-01-18T01:46:51.714Z,2.53
2018-01-18T01:49:19.319Z,2.13
2018-01-18T01:51:46.879Z,2.60
2018-01-18T01:54:14.427Z,2.40
2018-01-18T01:56:42.073Z,2.47
2018-01-18T01:59:09.614Z,2.30
2018-01-18T02:01:37.178Z,2.23
2018-01-18T02:04:04.670Z,2.33
2018-01-18T02:06:32.239Z,2.10
2018-01-18T02:08:59.805Z,2.23
2018-01-18T02:11:27.313Z,2.30
2018-01-18T02:13:54.809Z,2.10
2018-01-18T02:16:22.298Z,2.00
2018-01-18T02:18:49.860Z,2.40
2018-01-18T02:21:17.419Z,2.23
2018-01-18T02:23:44.933Z,2.00
2018-01-18T02:26:12.479Z,2.00
2018-01-18T02:28:40.036Z,2.27
2018-01-18T02:31:07.588Z,2.40
2018-01-18T02:33:35.165Z,2.30
2018-01-18T02:36:02.721Z,2.00
2018-01-18T02:38:30.282Z,2.17
2018-01-18T02:40:57.867Z,2.10
2018-01-18T02:43:25.353Z,1.97
2018-01-18T02:45:52.915Z,1.80
2018-01-18T02:48:20.467Z,2.10
2018-01-18T02:50:48.015Z,2.17
2018-01-18T02:53:15.568Z,1.90
2018-01-18T02:55:43.053Z,2.13
2018-01-18T02:58:10.634Z,1.70
2018-01-18T03:00:38.123Z,1.70
2018-01-18T03:03:05.605Z,1.90
2018-01-18T03:05:33.161Z,1.83
2018-01-18T03:08:00.724Z,2.10
2018-01-18T03:10:28.205Z,1.83
2018-01-18T03:12:55.750Z,2.03
2018-01-18T03:15:23.234Z,1.50
2018-01-18T03:17:50.725Z,1.70
2018-01-18T03:20:18.292Z,1.50
2018-01-18T03:22:45.892Z,1.50
2018-01-18T03:25:13.476Z,1.93
2018-01-18T03:27:41.027Z,1.70
2018-01-18T03:30:08.591Z,1.60
2018-01-18T03:32:36.200Z,1.70
2018-01-18T03:35:03.783Z,1.60
2018-01-18T03:37:31.400Z,1.70
2018-01-18T03:39:58.948Z,1.70
2018-01-18T03:42:26.535Z,1.97
2018-01-18T03:44:54.096Z,1.57
2018-01-18T03:47:21.671Z,1.87
2018-01-18T03:49:49.153Z,1.73
2018-01-18T03:52:16.720Z,1.70
2018-01-18T03:54:44.284Z,1.57
2018-01-18T03:57:11.845Z,1.80
2018-01-18T03:59:39.443Z,1.90
2018-01-18T04:02:06.925Z,1.77
2018-01-18T04:04:34.424Z,1.80
2018-01-18T04:07:02.063Z,1.90
2018-01-18T04:09:29.662Z,2.23
2018-01-18T04:11:57.219Z,2.00
2018-01-18T04:14:24.770Z,2.20
2018-01-18T04:16:52.357Z,1.73
2018-01-18T04:19:19.920Z,1.70
2018-01-18T04:21:47.393Z,2.20
2018-01-18T04:24:14.940Z,1.93
2018-01-18T04:26:42.492Z,1.50
2018-01-18T04:29:10.049Z,1.90
2018-01-18T04:31:37.623Z,1.80
2018-01-18T04:34:05.204Z,1.80
2018-01-18T04:36:32.768Z,1.80
2018-01-18T04:39:00.261Z,1.70
2018-01-18T04:41:27.860Z,2.77
2018-01-18T04:44:04.641Z,1.87
2018-01-18T04:46:32.226Z,2.50
2018-01-18T04:48:59.787Z,1.70
2018-01-18T04:51:27.361Z,2.10
2018-01-18T04:53:54.915Z,2.43
2018-01-18T04:56:22.466Z,2.50
2018-01-18T04:58:50.046Z,2.53
2018-01-18T05:01:17.530Z,2.47
2018-01-18T05:03:45.090Z,2.30
2018-01-18T05:06:12.647Z,2.80
2018-01-18T05:08:40.210Z,2.73
2018-01-18T05:11:07.728Z,2.80
2018-01-18T05:13:35.292Z,2.97
2018-01-18T05:16:02.848Z,2.70
2018-01-18T05:18:30.404Z,2.90
2018-01-18T05:20:57.892Z,3.20
2018-01-18T05:23:25.439Z,3.00
2018-01-18T05:25:52.989Z,2.67
2018-01-18T05:28:20.549Z,3.10
2018-01-18T05:30:48.100Z,2.83
2018-01-18T05:33:15.659Z,2.67
2018-01-18T05:35:43.201Z,2.73
2018-01-18T05:38:10.786Z,2.50
2018-01-18T05:40:38.354Z,2.60
2018-01-18T05:43:05.916Z,3.07
2018-01-18T05:45:33.476Z,2.70
2018-01-18T05:48:01.029Z,2.83
2018-01-18T05:50:28.610Z,2.80
2018-01-18T05:52:56.160Z,2.83
2018-01-18T05:55:23.719Z,2.70
2018-01-18T05:57:51.277Z,2.87
2018-01-18T06:00:18.883Z,3.00
2018-01-18T06:02:46.434Z,2.87
2018-01-18T06:05:13.990Z,2.97
2018-01-18T06:07:41.538Z,3.27
2018-01-18T06:10:09.083Z,2.70
2018-01-18T06:12:36.673Z,2.80
2018-01-18T06:15:04.241Z,3.10
2018-01-18T06:17:31.797Z,3.47
2018-01-18T06:19:59.284Z,2.67
2018-01-18T06:22:26.840Z,3.60
2018-01-18T06:24:54.623Z,2.97
2018-01-18T06:27:22.102Z,3.23
2018-01-18T06:29:49.696Z,3.07
2018-01-18T06:32:17.169Z,2.87
2018-01-18T06:34:44.732Z,2.80
2018-01-18T06:37:12.292Z,2.93
2018-01-18T06:39:39.882Z,3.40
2018-01-18T06:42:07.680Z,2.97
2018-01-18T06:44:35.233Z,3.53
2018-01-18T06:47:02.795Z,3.90
2018-01-18T06:49:30.347Z,3.33
2018-01-18T06:51:57.936Z,3.47
2018-01-18T06:54:25.507Z,3.80
2018-01-18T06:56:53.096Z,3.27
2018-01-18T06:59:20.676Z,3.67
2018-01-18T07:01:48.234Z,3.60
2018-01-18T07:04:15.799Z,3.80
2018-01-18T07:06:43.274Z,3.57
2018-01-18T07:09:10.762Z,3.83
2018-01-18T07:11:38.328Z,3.80
2018-01-18T07:14:05.821Z,3.93
2018-01-18T07:16:33.395Z,4.40
2018-01-18T07:19:01.075Z,4.33
2018-01-18T07:21:28.616Z,4.13
2018-01-18T07:23:56.200Z,4.30
2018-01-18T07:26:23.791Z,4.03
2018-01-18T07:28:51.266Z,3.80
2018-01-18T07:31:18.821Z,4.60
2018-01-18T07:33:46.397Z,4.00
2018-01-18T07:36:13.978Z,4.03
2018-01-18T07:38:41.544Z,3.70
2018-01-18T07:41:09.150Z,4.07
2018-01-18T07:43:36.723Z,4.10
2018-01-18T07:46:04.284Z,3.80
2018-01-18T07:48:31.835Z,4.10
2018-01-18T07:50:59.385Z,4.10
2018-01-18T07:53:26.982Z,4.33
2018-01-18T07:55:54.542Z,4.10
2018-01-18T07:58:22.095Z,3.97
2018-01-18T08:00:49.661Z,4.40
2018-01-18T08:03:22.710Z,4.37
2018-01-18T08:05:50.267Z,4.53
2018-01-18T08:08:18.633Z,4.73
2018-01-18T08:10:46.179Z,4.57
2018-01-18T08:13:13.731Z,4.53
2018-01-18T08:15:41.283Z,4.60
2018-01-18T08:18:08.838Z,4.60
2018-01-18T08:20:36.438Z,3.90
2018-01-18T08:23:04.019Z,4.37
2018-01-18T08:25:31.568Z,4.30
2018-01-18T08:27:59.054Z,4.30
2018-01-18T08:30:26.554Z,4.43
2018-01-18T08:32:54.104Z,4.57
2018-01-18T08:35:21.676Z,4.23
2018-01-18T08:37:49.236Z,4.10
2018-01-18T08:40:16.727Z,4.20
2018-01-18T08:42:44.280Z,4.60
2018-01-18T08:45:11.844Z,4.53
2018-01-18T08:47:39.408Z,4.53
2018-01-18T08:50:06.965Z,4.60
2018-01-18T08:52:34.456Z,4.30
2018-01-18T08:55:01.942Z,4.40
2018-01-18T08:57:29.539Z,4.40
2018-01-18T08:59:57.095Z,4.13
2018-01-18T09:02:24.782Z,4.20
2018-01-18T09:04:52.364Z,4.70
2018-01-18T09:07:19.919Z,4.50
2018-01-18T09:09:47.476Z,3.80
2018-01-18T09:12:14.958Z,4.40
2018-01-18T09:14:42.453Z,3.87
2018-01-18T09:17:10.007Z,4.67
2018-01-18T09:19:37.572Z,4.20
2018-01-18T09:22:05.131Z,4.30
2018-01-18T09:24:33.861Z,4.80
2018-01-18T09:27:01.407Z,4.47
2018-01-18T09:29:28.995Z,4.77
2018-01-18T09:31:56.687Z,4.30
2018-01-18T09:34:24.173Z,4.47
2018-01-18T09:36:51.727Z,4.20
2018-01-18T09:39:19.274Z,4.17
2018-01-18T09:41:46.852Z,3.73
2018-01-18T09:44:14.397Z,3.90
2018-01-18T09:46:41.990Z,4.10
2018-01-18T09:49:09.470Z,3.97
2018-01-18T09:51:37.032Z,4.07
2018-01-18T09:54:04.584Z,3.57
2018-01-18T09:56:32.138Z,3.97
2018-01-18T09:58:59.717Z,4.00
2018-01-18T10:01:27.275Z,4.27
2018-01-18T10:03:54.923Z,3.97
2018-01-18T10:06:22.476Z,3.80
2018-01-18T10:08:50.222Z,3.93
2018-01-18T10:11:17.776Z,3.80
2018-01-18T10:13:45.328Z,4.23
2018-01-18T10:16:12.880Z,3.90
2018-01-18T10:18:40.446Z,3.63
2018-01-18T10:21:08.031Z,3.57
2018-01-18T10:23:35.580Z,3.60
2018-01-18T10:26:03.153Z,4.07
2018-01-18T10:28:30.712Z,3.80
2018-01-18T10:30:58.252Z,3.60
2018-01-18T10:33:25.810Z,4.10
2018-01-18T10:35:53.380Z,3.87
2018-01-18T10:38:20.964Z,4.10
2018-01-18T10:40:48.445Z,3.90
2018-01-18T10:43:16.056Z,4.17
2018-01-18T10:45:43.618Z,4.50
2018-01-18T10:48:11.186Z,4.53
2018-01-18T10:50:38.751Z,4.73
2018-01-18T10:53:06.302Z,5.00
2018-01-18T10:55:33.858Z,5.23
2018-01-18T10:58:01.407Z,5.27
2018-01-18T11:00:29.023Z,5.40
2018-01-18T11:02:56.566Z,4.97
2018-01-18T11:05:24.050Z,5.13
2018-01-18T11:07:51.601Z,5.90
2018-01-18T11:10:19.077Z,5.67
2018-01-18T11:12:46.566Z,5.50
2018-01-18T11:15:14.256Z,4.90
2018-01-18T11:17:42.371Z,5.43
2018-01-18T11:20:09.999Z,5.63
2018-01-18T11:22:38.963Z,4.87
2018-01-18T11:25:25.044Z,5.13
2018-01-18T11:30:24.493Z,4.57
2018-01-18T11:32:52.060Z,4.60
2018-01-18T11:35:19.611Z,4.63
2018-01-18T11:37:47.160Z,5.63
2018-01-18T11:40:32.836Z,4.60
2018-01-18T11:43:00.392Z,4.20
2018-01-18T11:45:27.992Z,4.60
2018-01-18T11:47:55.635Z,4.33
2018-01-18T11:50:23.185Z,4.80
2018-01-18T11:52:50.823Z,4.27
2018-01-18T11:55:18.379Z,5.03
2018-01-18T11:57:45.976Z,4.13
2018-01-18T12:00:13.529Z,3.50
2018-01-18T12:02:41.029Z,4.47
2018-01-18T12:05:08.613Z,3.60
2018-01-18T12:07:36.203Z,3.50
2018-01-18T12:10:03.875Z,3.23
2018-01-18T12:12:32.553Z,3.30
2018-01-18T12:15:00.080Z,3.60
2018-01-18T12:17:27.647Z,3.47
2018-01-18T12:19:55.199Z,3.57
2018-01-18T12:22:22.776Z,3.53
2018-01-18T12:24:50.337Z,2.97
2018-01-18T12:27:17.904Z,3.43
2018-01-18T12:29:47.258Z,2.47
2018-01-18T12:32:14.753Z,3.03
2018-01-18T12:34:42.312Z,2.87
2018-01-18T12:37:09.907Z,3.20
2018-01-18T12:39:37.451Z,3.03
2018-01-18T12:42:04.945Z,3.67
2018-01-18T12:44:33.340Z,2.67
2018-01-18T12:47:00.888Z,2.50
2018-01-18T12:49:28.448Z,2.80
2018-01-18T12:51:55.986Z,3.00
2018-01-18T12:54:23.573Z,2.73
2018-01-18T12:56:51.130Z,2.63
2018-01-18T12:59:18.684Z,2.80
2018-01-18T13:01:46.243Z,3.10
2018-01-18T13:04:13.806Z,2.60
2018-01-18T13:06:41.367Z,2.63
2018-01-18T13:09:08.916Z,2.50
2018-01-18T13:11:36.437Z,2.53
2018-01-18T13:14:03.998Z,2.27
2018-01-18T13:16:31.563Z,2.50
2018-01-18T13:18:59.148Z,2.10
2018-01-18T13:21:26.717Z,2.20
2018-01-18T13:23:54.289Z,2.43
2018-01-18T13:26:21.904Z,2.70
2018-01-18T13:28:49.468Z,2.70
2018-01-18T13:31:17.035Z,2.47
2018-01-18T13:33:44.602Z,2.40
2018-01-18T13:36:12.183Z,2.90
2018-01-18T13:38:39.730Z,2.87
2018-01-18T13:41:07.316Z,2.57
2018-01-18T13:43:34.921Z,2.47
2018-01-18T13:46:02.421Z,2.70
2018-01-18T13:48:30.189Z,2.73
2018-01-18T13:50:57.823Z,2.80
2018-01-18T13:53:25.429Z,2.90
2018-01-18T13:55:52.999Z,2.70
2018-01-18T13:58:20.639Z,3.10
2018-01-18T14:00:48.129Z,3.03
2018-01-18T14:03:15.652Z,3.57
2018-01-18T14:05:43.268Z,3.67
2018-01-18T14:08:10.868Z,3.40
2018-01-18T14:10:40.316Z,3.40
2018-01-18T14:13:08.275Z,4.00
2018-01-18T14:15:36.551Z,3.33
2018-01-18T14:18:04.078Z,3.70
2018-01-18T14:20:31.666Z,3.43
2018-01-18T14:22:59.279Z,3.47
2018-01-18T14:25:27.175Z,3.47
2018-01-18T14:27:54.711Z,3.97
2018-01-18T14:30:22.204Z,3.27
2018-01-18T14:32:49.714Z,3.23
2018-01-18T14:35:17.276Z,3.50
2018-01-18T14:37:44.950Z,3.37
2018-01-18T14:40:12.433Z,3.17
2018-01-18T14:42:40.049Z,3.50
2018-01-18T14:45:07.678Z,3.23
2018-01-18T14:50:03.175Z,3.10
2018-01-18T14:52:30.824Z,3.67
2018-01-18T14:55:06.123Z,3.20
2018-01-18T14:57:33.704Z,3.37
2018-01-18T15:00:01.283Z,3.43
2018-01-18T15:02:28.822Z,3.43
2018-01-18T15:04:56.312Z,3.53
2018-01-18T15:07:23.793Z,3.67
2018-01-18T15:09:51.348Z,4.33
2018-01-18T15:12:19.780Z,4.53
2018-01-18T15:14:49.018Z,4.37
2018-01-18T15:17:16.619Z,4.20
2018-01-18T15:19:44.180Z,4.40
2018-01-18T15:22:11.837Z,4.60
2018-01-18T15:24:39.433Z,4.00
2018-01-18T15:27:09.354Z,3.97
2018-01-18T15:29:37.001Z,4.20
2018-01-18T15:32:04.517Z,4.23
2018-01-18T15:34:32.100Z,4.53
2018-01-18T15:36:59.627Z,4.40
2018-01-18T15:39:27.173Z,4.00
2018-01-18T15:41:54.726Z,4.40
2018-01-18T15:44:22.311Z,4.33
2018-01-18T15:46:50.295Z,4.30
2018-01-18T15:49:24.686Z,4.07
2018-01-18T15:51:52.359Z,3.80
2018-01-18T15:54:19.957Z,3.97
2018-01-18T15:56:47.508Z,4.10
2018-01-18T15:59:15.116Z,4.03
2018-01-18T16:01:42.984Z,3.60
2018-01-18T16:04:10.590Z,3.70
2018-01-18T16:06:38.227Z,4.07
2018-01-18T16:09:05.788Z,4.17
2018-01-18T16:11:33.378Z,3.90
2018-01-18T16:14:01.074Z,3.77
2018-01-18T16:16:31.016Z,3.93
2018-01-18T16:18:58.779Z,4.07
2018-01-18T16:21:26.423Z,3.67
2018-01-18T16:23:55.092Z,3.77
2018-01-18T16:26:24.999Z,4.17
2018-01-18T16:28:53.508Z,4.20
2018-01-18T16:32:41.717Z,4.27
2018-01-18T16:35:12.853Z,4.53
2018-01-18T16:37:40.366Z,3.97
2018-01-18T16:40:09.359Z,4.00
2018-01-18T16:42:37.797Z,4.20
2018-01-18T16:45:05.800Z,4.30
2018-01-18T16:47:33.313Z,3.80
2018-01-18T16:50:00.802Z,4.30
2018-01-18T16:55:30.539Z,3.97
2018-01-18T16:58:02.023Z,4.20
2018-01-18T17:03:07.920Z,4.40
2018-01-18T17:05:52.413Z,5.00
2018-01-18T17:08:26.202Z,5.07
2018-01-18T17:10:53.827Z,4.53
2018-01-18T17:13:33.750Z,5.28
2018-01-18T17:16:02.083Z,4.50
2018-01-18T17:18:29.644Z,4.70
2018-01-18T17:20:57.145Z,4.80
2018-01-18T17:23:24.703Z,5.43
2018-01-18T17:25:52.284Z,4.57
2018-01-18T17:28:20.024Z,4.70
2018-01-18T17:30:47.537Z,4.53
2018-01-18T17:33:15.098Z,4.40
2018-01-18T17:35:42.647Z,4.30
2018-01-18T17:38:13.231Z,4.20
2018-01-18T17:40:40.871Z,4.43
2018-01-18T17:43:08.424Z,5.43
2018-01-18T17:45:36.040Z,6.00
2018-01-18T17:48:03.606Z,7.47
2018-01-18T17:50:31.168Z,5.97
2018-01-18T17:52:58.735Z,5.93
2018-01-18T17:55:26.214Z,5.50
2018-01-18T17:57:53.774Z,6.33
2018-01-18T18:00:21.347Z,6.17
2018-01-18T18:02:55.109Z,6.07
2018-01-18T18:05:22.817Z,5.37
2018-01-18T18:07:50.337Z,5.57
2018-01-18T18:10:23.409Z,5.53
2018-01-18T18:12:51.014Z,5.60
2018-01-18T18:15:18.576Z,5.40
2018-01-18T18:17:46.066Z,5.50
2018-01-18T18:20:13.621Z,5.53
2018-01-18T18:22:41.184Z,5.17
2018-01-18T18:25:08.777Z,4.80
2018-01-18T18:27:36.335Z,5.60
2018-01-18T18:30:03.861Z,5.07
2018-01-18T18:32:31.444Z,4.80
2018-01-18T18:34:59.014Z,4.47
2018-01-18T18:37:26.584Z,5.00
2018-01-18T18:39:54.143Z,5.73
2018-01-18T18:42:21.749Z,4.50
2018-01-18T18:44:49.308Z,5.27
2018-01-18T18:47:16.876Z,5.00
2018-01-18T18:49:44.459Z,4.93
2018-01-18T18:52:12.029Z,4.83
2018-01-18T18:54:39.584Z,5.07
2018-01-18T18:57:07.096Z,5.40
2018-01-18T18:59:34.625Z,5.57
2018-01-18T19:02:02.175Z,5.10
2018-01-18T19:04:29.657Z,4.90
2018-01-18T19:06:57.211Z,4.60
2018-01-18T19:09:24.773Z,5.07
2018-01-18T19:11:52.382Z,4.73
2018-01-18T19:14:19.960Z,5.07
2018-01-18T19:16:47.530Z,4.77
2018-01-18T19:19:15.014Z,4.67
2018-01-18T19:21:42.612Z,4.40
2018-01-18T19:24:10.226Z,4.83
2018-01-18T19:26:37.789Z,4.13
2018-01-18T19:29:05.353Z,4.40
2018-01-18T19:31:32.910Z,4.70
2018-01-18T19:34:00.390Z,4.30
2018-01-18T19:36:27.934Z,3.87
2018-01-18T19:38:55.461Z,4.00
2018-01-18T19:41:23.015Z,4.07
2018-01-18T19:43:50.510Z,4.87
2018-01-18T19:46:18.040Z,5.03
2018-01-18T19:48:45.599Z,4.40
2018-01-18T19:51:13.073Z,4.97
2018-01-18T19:53:40.632Z,4.93
2018-01-18T19:56:08.180Z,4.50
2018-01-18T19:58:35.662Z,4.30
2018-01-18T20:01:03.258Z,4.23
2018-01-18T20:03:40.866Z,3.97
2018-01-18T20:06:08.475Z,3.90
2018-01-18T20:08:35.974Z,4.53
2018-01-18T20:11:03.552Z,4.40
2018-01-18T20:13:31.347Z,4.67
2018-01-18T20:15:58.914Z,4.07
2018-01-18T20:18:26.418Z,4.30
2018-01-18T20:20:54.005Z,4.80
2018-01-18T20:23:21.606Z,4.60
2018-01-18T20:25:49.188Z,5.07
2018-01-18T20:28:17.679Z,5.23
2018-01-18T20:30:45.322Z,5.00
2018-01-18T20:33:12.825Z,4.60
2018-01-18T20:35:41.271Z,5.47
2018-01-18T20:38:08.833Z,5.90
2018-01-18T20:40:36.406Z,5.27
2018-01-18T20:43:03.977Z,5.90
2018-01-18T20:45:31.551Z,5.63
2018-01-18T20:47:59.139Z,5.50
2018-01-18T20:50:26.714Z,5.83
2018-01-18T20:52:54.328Z,5.33
2018-01-18T20:55:21.896Z,5.53
2018-01-18T20:57:49.956Z,6.27
2018-01-18T21:00:17.536Z,6.10
2018-01-18T21:02:49.179Z,5.50
2018-01-18T21:05:16.810Z,6.10
2018-01-18T21:07:44.392Z,5.90
2018-01-18T21:10:11.886Z,6.03
2018-01-18T21:18:50.487Z,6.77
2018-01-18T21:21:18.147Z,6.53
2018-01-18T21:23:46.064Z,6.47
2018-01-18T21:26:13.791Z,6.23
2018-01-18T21:28:41.321Z,6.87
2018-01-18T21:31:11.383Z,6.97
2018-01-18T21:33:38.930Z,6.43
2018-01-18T21:36:06.418Z,7.00
2018-01-18T21:38:33.963Z,6.63
2018-01-18T21:41:01.539Z,6.97
2018-01-18T21:43:30.901Z,6.90
2018-01-18T21:45:59.138Z,6.33
2018-01-18T21:48:26.732Z,6.77
2018-01-18T21:50:54.295Z,6.80
2018-01-18T21:53:22.563Z,7.57
2018-01-18T21:55:50.041Z,7.90
2018-01-18T21:58:17.601Z,7.80
2018-01-18T22:00:45.155Z,7.57
2018-01-18T22:03:12.645Z,7.30
2018-01-18T22:05:40.236Z,7.30
2018-01-18T22:08:07.738Z,6.23
2018-01-18T22:10:35.234Z,8.23
2018-01-18T22:13:02.798Z,7.77
2018-01-18T22:15:30.290Z,7.93
2018-01-18T22:17:57.797Z,6.97
2018-01-18T22:20:25.629Z,7.50
2018-01-18T22:22:53.322Z,7.43
2018-01-18T22:25:20.952Z,7.57
2018-01-18T22:27:48.484Z,7.23
2018-01-18T22:30:15.974Z,8.07
2018-01-18T22:32:43.960Z,7.30
2018-01-18T22:35:11.520Z,8.00
2018-01-18T22:37:39.034Z,8.10
2018-01-18T22:40:06.522Z,8.00
2018-01-18T22:42:34.103Z,7.87
2018-01-18T22:45:01.732Z,7.83
2018-01-18T22:47:29.230Z,7.20
2018-01-18T22:49:56.731Z,7.80
2018-01-18T22:52:24.291Z,8.07
2018-01-18T22:54:52.761Z,8.93
2018-01-18T22:57:20.328Z,8.13
2018-01-18T22:59:47.878Z,8.00
2018-01-18T23:02:15.585Z,8.67
2018-01-18T23:04:43.167Z,7.90
2018-01-18T23:07:10.739Z,8.00
2018-01-18T23:09:38.241Z,8.33
2018-01-18T23:12:05.758Z,8.67
2018-01-18T23:14:33.323Z,7.70
2018-01-18T23:17:00.886Z,7.83
2018-01-18T23:19:28.439Z,7.37
2018-01-18T23:21:55.999Z,8.50
2018-01-18T23:24:23.568Z,8.27
2018-01-18T23:26:51.511Z,8.43
2018-01-18T23:29:19.150Z,8.23
2018-01-18T23:31:46.717Z,8.50
2018-01-18T23:34:14.367Z,7.60
2018-01-18T23:36:42.422Z,8.37
2018-01-18T23:39:09.987Z,8.20
2018-01-18T23:41:37.540Z,8.10
2018-01-18T23:44:05.087Z,7.87
2018-01-18T23:46:32.628Z,7.73
2018-01-18T23:49:00.122Z,7.80
2018-01-18T23:51:27.688Z,8.10
2018-01-18T23:53:55.248Z,8.00
2018-01-18T23:56:22.815Z,7.90
2018-01-18T23:58:50.301Z,7.77
